createdAt,value
2024-05-09T00:00:18.679Z,100734.66
2024-05-09T00:03:23.774Z,100733.02
2024-05-09T00:06:01.255Z,100730.70
2024-05-09T00:08:38.764Z,100732.63
2024-05-09T00:11:16.432Z,100733.00
2024-05-09T00:13:53.860Z,100733.40
2024-05-09T00:16:31.161Z,100737.52
2024-05-09T00:19:10.129Z,100729.05
2024-05-09T00:21:49.068Z,100733.40
2024-05-09T00:24:23.732Z,100736.99
2024-05-09T00:27:01.028Z,100731.55
2024-05-09T00:29:38.277Z,100733.93
2024-05-09T00:32:15.577Z,100734.73
2024-05-09T00:34:53.031Z,100737.62
2024-05-09T00:37:30.324Z,100734.50
2024-05-09T00:40:15.053Z,100732.92
2024-05-09T00:42:59.620Z,100735.52
2024-05-09T00:45:37.274Z,100733.48
2024-05-09T00:48:19.763Z,100737.77
2024-05-09T00:50:58.855Z,100737.13
2024-05-09T00:53:36.631Z,100730.09
2024-05-09T00:56:15.773Z,100728.02
2024-05-09T00:58:54.056Z,100726.64
2024-05-09T01:01:32.076Z,100730.31
2024-05-09T01:04:11.427Z,100727.39
2024-05-09T01:06:50.187Z,100729.38
2024-05-09T01:09:27.402Z,100734.42
2024-05-09T01:12:04.653Z,100734.02
2024-05-09T01:14:44.075Z,100733.45
2024-05-09T01:17:21.751Z,100727.11
2024-05-09T01:19:58.984Z,100727.56
2024-05-09T01:22:37.149Z,100725.77
2024-05-09T01:25:15.856Z,100726.66
2024-05-09T01:27:53.060Z,100722.98
2024-05-09T01:30:34.891Z,100728.29
2024-05-09T01:33:15.237Z,100727.80
2024-05-09T01:35:52.552Z,100724.53
2024-05-09T01:38:29.755Z,100731.38
2024-05-09T01:41:07.706Z,100726.70
2024-05-09T01:43:45.106Z,100724.54
2024-05-09T01:46:22.297Z,100724.77
2024-05-09T01:48:59.840Z,100726.05
2024-05-09T01:51:37.985Z,100727.91
2024-05-09T01:54:15.135Z,100723.98
2024-05-09T01:56:52.318Z,100726.59
2024-05-09T01:59:29.568Z,100726.63
2024-05-09T02:02:07.387Z,100725.86
2024-05-09T02:04:48.181Z,100722.82
2024-05-09T02:07:25.570Z,100727.23
2024-05-09T02:10:06.491Z,100730.61
2024-05-09T02:12:45.520Z,100733.25
2024-05-09T02:15:23.032Z,100733.05
2024-05-09T02:18:00.389Z,100728.14
2024-05-09T02:20:38.093Z,100727.55
2024-05-09T02:23:16.284Z,100726.11
2024-05-09T02:25:53.768Z,100721.84
2024-05-09T02:28:31.175Z,100720.92
2024-05-09T02:31:08.440Z,100722.31
2024-05-09T02:33:46.047Z,100728.75
2024-05-09T02:36:23.293Z,100722.73
2024-05-09T02:39:02.516Z,100723.00
2024-05-09T02:41:39.929Z,100719.33
2024-05-09T02:44:17.217Z,100725.64
2024-05-09T02:46:54.658Z,100720.89
2024-05-09T02:49:32.224Z,100719.21
2024-05-09T02:52:10.299Z,100720.88
2024-05-09T02:54:47.443Z,100723.27
2024-05-09T02:57:24.616Z,100721.89
2024-05-09T03:00:01.805Z,100716.00
2024-05-09T03:02:39.296Z,100719.25
2024-05-09T03:05:16.707Z,100718.21
2024-05-09T03:07:53.934Z,100720.75
2024-05-09T03:10:35.990Z,100726.36
2024-05-09T03:13:16.774Z,100726.16
2024-05-09T03:15:54.018Z,100729.62
2024-05-09T03:18:31.166Z,100730.39
2024-05-09T03:21:08.740Z,100722.84
2024-05-09T03:23:47.276Z,100728.05
2024-05-09T03:26:24.504Z,100724.41
2024-05-09T03:29:02.962Z,100729.74
2024-05-09T03:31:41.194Z,100733.44
2024-05-09T03:34:18.419Z,100725.14
2024-05-09T03:36:55.678Z,100715.27
2024-05-09T03:39:32.915Z,100716.75
2024-05-09T03:42:10.767Z,100719.27
2024-05-09T03:44:48.009Z,100718.55
2024-05-09T03:47:25.376Z,100719.47
2024-05-09T03:50:04.412Z,100718.19
2024-05-09T03:52:42.673Z,100722.18
2024-05-09T03:55:20.015Z,100723.86
2024-05-09T03:57:57.222Z,100725.95
2024-05-09T04:00:38.231Z,100724.91
2024-05-09T04:03:17.227Z,100728.66
2024-05-09T04:05:54.616Z,100730.23
2024-05-09T04:08:31.885Z,100734.84
2024-05-09T04:11:09.693Z,100735.48
2024-05-09T04:13:47.093Z,100738.89
2024-05-09T04:16:24.262Z,100739.83
2024-05-09T04:19:03.259Z,100739.65
2024-05-09T04:21:41.027Z,100738.78
2024-05-09T04:24:18.239Z,100742.74
2024-05-09T04:26:55.513Z,100744.96
2024-05-09T04:29:32.890Z,100742.30
2024-05-09T04:32:11.038Z,100748.77
2024-05-09T04:34:48.320Z,100741.94
2024-05-09T04:37:25.579Z,100738.45
2024-05-09T04:40:03.106Z,100740.88
2024-05-09T04:42:42.548Z,100742.14
2024-05-09T04:45:19.827Z,100742.98
2024-05-09T04:47:57.259Z,100746.02
2024-05-09T04:50:38.260Z,100748.55
2024-05-09T04:53:20.527Z,100749.38
2024-05-09T04:55:58.059Z,100747.34
2024-05-09T04:58:35.321Z,100747.32
2024-05-09T05:01:12.812Z,100751.76
2024-05-09T05:03:50.197Z,100756.74
2024-05-09T05:06:27.643Z,100755.08
2024-05-09T05:09:06.223Z,100763.05
2024-05-09T05:11:43.670Z,100769.91
2024-05-09T05:14:21.096Z,100764.19
2024-05-09T05:16:58.436Z,100763.30
2024-05-09T05:19:35.870Z,100757.84
2024-05-09T05:22:13.274Z,100756.89
2024-05-09T05:24:50.482Z,100752.93
2024-05-09T05:27:27.711Z,100754.46
2024-05-09T05:30:09.418Z,100758.66
2024-05-09T05:32:47.004Z,100755.34
2024-05-09T05:35:24.563Z,100755.99
2024-05-09T05:38:02.176Z,100754.61
2024-05-09T05:40:40.989Z,100757.94
2024-05-09T05:43:21.965Z,100753.72
2024-05-09T05:45:59.162Z,100757.48
2024-05-09T05:48:36.490Z,100762.09
2024-05-09T05:51:14.017Z,100759.27
2024-05-09T05:53:51.288Z,100758.34
2024-05-09T05:56:28.757Z,100754.52
2024-05-09T05:59:06.840Z,100757.73
2024-05-09T06:01:44.308Z,100754.21
2024-05-09T06:04:22.473Z,100755.40
2024-05-09T06:07:00.727Z,100758.85
2024-05-09T06:09:39.345Z,100765.01
2024-05-09T06:12:17.728Z,100765.84
2024-05-09T06:14:55.509Z,100765.45
2024-05-09T06:17:33.194Z,100762.27
2024-05-09T06:20:20.251Z,100768.38
2024-05-09T06:23:02.565Z,100764.41
2024-05-09T06:25:40.589Z,100762.73
2024-05-09T06:28:18.026Z,100761.54
2024-05-09T06:30:55.520Z,100763.98
2024-05-09T06:33:33.394Z,100763.87
2024-05-09T06:36:12.098Z,100768.16
2024-05-09T06:38:49.631Z,100767.02
2024-05-09T06:41:27.418Z,100767.96
2024-05-09T06:44:07.317Z,100767.29
2024-05-09T06:46:45.561Z,100762.14
2024-05-09T06:49:23.466Z,100761.88
2024-05-09T06:52:01.126Z,100759.23
2024-05-09T06:54:38.818Z,100756.29
2024-05-09T06:57:16.519Z,100757.98
2024-05-09T06:59:54.060Z,100757.71
2024-05-09T07:02:32.303Z,100753.19
2024-05-09T07:05:11.279Z,100756.55
2024-05-09T07:07:46.220Z,100754.09
2024-05-09T07:10:29.043Z,100756.42
2024-05-09T07:13:15.050Z,100755.48
2024-05-09T07:15:53.201Z,100756.45
2024-05-09T07:18:31.804Z,100756.64
2024-05-09T07:21:10.024Z,100751.61
2024-05-09T07:23:47.913Z,100755.39
2024-05-09T07:26:25.674Z,100755.73
2024-05-09T07:29:04.367Z,100750.92
2024-05-09T07:31:41.909Z,100748.61
2024-05-09T07:34:19.729Z,100748.90
2024-05-09T07:36:57.415Z,100746.40
2024-05-09T07:39:34.884Z,100745.85
2024-05-09T07:42:12.779Z,100741.52
2024-05-09T07:44:50.384Z,100743.48
2024-05-09T07:53:35.278Z,100742.18
2024-05-09T07:55:47.718Z,100746.02
2024-05-09T07:58:27.855Z,100745.13
2024-05-09T08:01:05.867Z,100742.85
2024-05-09T08:03:43.891Z,100742.73
2024-05-09T08:06:21.448Z,100739.83
2024-05-09T08:09:02.814Z,100740.82
2024-05-09T08:11:43.436Z,100739.23
2024-05-09T08:14:20.933Z,100732.71
2024-05-09T08:16:58.446Z,100730.10
2024-05-09T08:19:37.843Z,100729.72
2024-05-09T08:22:15.538Z,100731.73
2024-05-09T08:24:53.199Z,100725.52
2024-05-09T08:27:31.071Z,100724.39
2024-05-09T08:30:15.466Z,100719.86
2024-05-09T08:32:59.157Z,100715.47
2024-05-09T08:35:37.026Z,100716.03
2024-05-09T08:38:14.612Z,100716.84
2024-05-09T08:40:52.526Z,100715.79
2024-05-09T08:43:32.381Z,100711.95
2024-05-09T08:46:11.372Z,100711.00
2024-05-09T08:48:50.795Z,100708.44
2024-05-09T08:51:29.229Z,100708.96
2024-05-09T08:54:07.472Z,100710.91
2024-05-09T08:56:48.425Z,100710.39
2024-05-09T08:59:30.584Z,100708.04
2024-05-09T09:02:09.084Z,100707.74
2024-05-09T09:04:53.716Z,100707.14
2024-05-09T09:07:32.521Z,100705.21
2024-05-09T09:10:12.871Z,100711.13
2024-05-09T09:13:00.851Z,100710.21
2024-05-09T09:15:48.683Z,100704.44
2024-05-09T09:18:27.634Z,100705.38
2024-05-09T09:21:05.552Z,100700.48
2024-05-09T09:23:44.400Z,100702.77
2024-05-09T09:26:25.393Z,100689.17
2024-05-09T09:29:07.547Z,100693.41
2024-05-09T09:31:45.075Z,100697.31
2024-05-09T09:34:22.810Z,100697.70
2024-05-09T09:37:06.673Z,100693.67
2024-05-09T09:39:49.053Z,100694.29
2024-05-09T09:42:30.105Z,100686.55
2024-05-09T09:45:09.452Z,100684.55
2024-05-09T09:47:49.322Z,100682.30
2024-05-09T09:50:33.877Z,100686.39
2024-05-09T09:53:13.107Z,100681.40
2024-05-09T09:55:51.484Z,100676.05
2024-05-09T09:58:29.964Z,100676.70
2024-05-09T10:01:04.780Z,100674.34
2024-05-09T10:03:42.518Z,100675.81
2024-05-09T10:06:21.581Z,100673.45
2024-05-09T10:09:00.007Z,100671.33
2024-05-09T10:11:42.034Z,100665.79
2024-05-09T10:14:31.004Z,100667.11
2024-05-09T10:17:11.890Z,100661.84
2024-05-09T10:19:49.197Z,100664.45
2024-05-09T10:22:34.064Z,100664.06
2024-05-09T10:25:12.645Z,100651.94
2024-05-09T10:27:57.074Z,100647.50
2024-05-09T10:30:36.300Z,100646.77
2024-05-09T10:33:17.028Z,100643.17
2024-05-09T10:36:05.285Z,100642.66
2024-05-09T10:38:42.806Z,100643.08
2024-05-09T10:41:22.056Z,100638.88
2024-05-09T10:43:59.301Z,100639.05
2024-05-09T10:46:36.590Z,100635.00
2024-05-09T10:49:16.427Z,100638.36
2024-05-09T10:51:55.023Z,100633.61
2024-05-09T10:54:41.073Z,100627.73
2024-05-09T10:57:19.834Z,100624.81
2024-05-09T10:59:57.067Z,100619.85
2024-05-09T11:02:34.545Z,100621.33
2024-05-09T11:05:12.449Z,100617.73
2024-05-09T11:07:49.760Z,100620.27
2024-05-09T11:10:33.749Z,100623.48
2024-05-09T11:13:12.041Z,100623.73
2024-05-09T11:15:49.542Z,100622.06
2024-05-09T11:18:31.918Z,100619.95
2024-05-09T11:21:17.277Z,100623.94
2024-05-09T11:23:54.868Z,100619.91
2024-05-09T11:26:34.090Z,100622.92
2024-05-09T11:29:15.737Z,100617.02
2024-05-09T11:31:54.685Z,100613.41
2024-05-09T11:34:32.106Z,100616.11
2024-05-09T11:37:10.345Z,100606.32
2024-05-09T11:39:47.771Z,100602.06
2024-05-09T11:42:26.108Z,100603.28
2024-05-09T11:45:03.293Z,100597.95
2024-05-09T11:47:41.153Z,100594.95
2024-05-09T11:50:26.901Z,100588.46
2024-05-09T11:53:07.922Z,100583.92
2024-05-09T11:55:45.186Z,100578.27
2024-05-09T11:58:23.645Z,100576.41
2024-05-09T12:01:02.004Z,100578.98
2024-05-09T12:03:40.776Z,100578.58
2024-05-09T12:06:18.532Z,100575.13
2024-05-09T12:08:56.206Z,100570.36
2024-05-09T12:11:33.627Z,100565.91
2024-05-09T12:14:11.024Z,100561.73
2024-05-09T12:16:48.537Z,100560.31
2024-05-09T12:19:25.950Z,100556.51
2024-05-09T12:22:03.398Z,100550.52
2024-05-09T12:24:40.876Z,100546.29
2024-05-09T12:27:18.624Z,100541.38
2024-05-09T12:29:55.944Z,100541.44
2024-05-09T12:32:33.252Z,100537.05
2024-05-09T12:35:10.854Z,100545.48
2024-05-09T12:37:48.121Z,100539.60
2024-05-09T12:40:34.316Z,100540.91
2024-05-09T12:43:14.855Z,100535.84
2024-05-09T12:45:52.523Z,100537.86
2024-05-09T12:48:30.045Z,100537.88
2024-05-09T12:51:07.995Z,100535.14
2024-05-09T12:53:45.239Z,100531.84
2024-05-09T12:56:22.571Z,100528.52
2024-05-09T12:59:00.186Z,100532.00
2024-05-09T13:01:37.611Z,100519.66
2024-05-09T13:04:15.004Z,100518.39
2024-05-09T13:06:52.466Z,100516.33
2024-05-09T13:09:29.867Z,100508.98
2024-05-09T13:12:07.707Z,100504.13
2024-05-09T13:14:44.922Z,100502.80
2024-05-09T13:17:22.322Z,100502.29
2024-05-09T13:19:59.655Z,100499.61
2024-05-09T13:22:38.468Z,100493.77
2024-05-09T13:25:16.552Z,100494.86
2024-05-09T13:27:54.270Z,100495.08
2024-05-09T13:30:39.245Z,100498.75
2024-05-09T13:33:19.208Z,100494.52
2024-05-09T13:35:56.801Z,100496.30
2024-05-09T13:38:34.154Z,100494.59
2024-05-09T13:41:11.757Z,100491.43
2024-05-09T13:43:49.009Z,100484.48
2024-05-09T13:46:27.086Z,100487.79
2024-05-09T13:49:07.678Z,100481.79
2024-05-09T13:51:45.837Z,100476.10
2024-05-09T13:54:23.029Z,100475.36
2024-05-09T13:57:03.474Z,100473.59
2024-05-09T13:59:40.671Z,100471.31
2024-05-09T14:02:18.190Z,100468.63
2024-05-09T14:04:56.050Z,100465.74
2024-05-09T14:07:33.460Z,100464.05
2024-05-09T14:10:19.491Z,100462.67
2024-05-09T14:13:01.273Z,100453.58
2024-05-09T14:15:36.234Z,100460.96
2024-05-09T14:18:14.572Z,100456.90
2024-05-09T14:20:52.231Z,100455.06
2024-05-09T14:23:29.548Z,100452.79
2024-05-09T14:26:07.362Z,100453.77
2024-05-09T14:28:44.570Z,100453.80
2024-05-09T14:31:22.670Z,100448.55
2024-05-09T14:34:00.101Z,100445.50
2024-05-09T14:36:37.781Z,100444.87
2024-05-09T14:39:15.346Z,100440.33
2024-05-09T14:41:52.841Z,100438.56
2024-05-09T14:44:30.142Z,100435.55
2024-05-09T14:47:07.479Z,100425.90
2024-05-09T14:49:44.831Z,100421.36
2024-05-09T14:52:22.122Z,100416.37
2024-05-09T14:55:00.526Z,100414.99
2024-05-09T14:57:38.655Z,100413.73
2024-05-09T15:00:24.831Z,100408.44
2024-05-09T15:03:05.976Z,100408.02
2024-05-09T15:05:43.491Z,100408.64
2024-05-09T15:08:22.587Z,100408.86
2024-05-09T15:10:59.958Z,100404.06
2024-05-09T15:13:37.212Z,100404.80
2024-05-09T15:16:14.597Z,100407.90
2024-05-09T15:18:52.178Z,100402.80
2024-05-09T15:21:29.634Z,100399.58
2024-05-09T15:24:09.478Z,100400.80
2024-05-09T15:26:46.774Z,100396.50
2024-05-09T15:29:24.034Z,100390.54
2024-05-09T15:32:01.308Z,100395.33
2024-05-09T15:34:38.736Z,100389.16
2024-05-09T15:37:16.145Z,100395.67
2024-05-09T15:39:53.698Z,100390.61
2024-05-09T15:42:31.203Z,100388.52
2024-05-09T15:45:10.041Z,100386.33
2024-05-09T15:47:48.377Z,100384.05
2024-05-09T15:50:35.956Z,100387.98
2024-05-09T15:53:17.575Z,100382.70
2024-05-09T15:55:54.795Z,100375.90
2024-05-09T15:58:32.511Z,100374.86
2024-05-09T16:01:10.435Z,100365.14
2024-05-09T16:03:48.029Z,100365.20
2024-05-09T16:06:25.752Z,100352.02
2024-05-09T16:09:03.112Z,100352.33
2024-05-09T16:11:42.997Z,100358.16
2024-05-09T16:14:20.773Z,100351.27
2024-05-09T16:16:58.163Z,100353.49
2024-05-09T16:19:35.522Z,100350.13
2024-05-09T16:22:12.873Z,100353.63
2024-05-09T16:24:50.758Z,100349.44
2024-05-09T16:27:27.999Z,100346.38
2024-05-09T16:30:09.479Z,100345.63
2024-05-09T16:32:52.820Z,100343.59
2024-05-09T16:35:30.173Z,100345.10
2024-05-09T16:38:07.839Z,100340.17
2024-05-09T16:40:45.566Z,100339.68
2024-05-09T16:43:23.274Z,100339.88
2024-05-09T16:46:00.748Z,100340.56
2024-05-09T16:48:40.862Z,100337.23
2024-05-09T16:51:18.238Z,100337.10
2024-05-09T16:53:55.455Z,100333.27
2024-05-09T16:56:32.715Z,100334.25
2024-05-09T16:59:10.418Z,100337.64
2024-05-09T17:01:47.740Z,100336.11
2024-05-09T17:04:25.301Z,100336.01
2024-05-09T17:07:02.850Z,100337.25
2024-05-09T17:09:43.194Z,100334.04
2024-05-09T17:12:20.470Z,100335.02
2024-05-09T17:14:57.645Z,100341.11
2024-05-09T17:17:34.998Z,100336.50
2024-05-09T17:20:25.580Z,100334.65
2024-05-09T17:23:13.741Z,100333.16
2024-05-09T17:25:51.662Z,100330.08
2024-05-09T17:28:29.266Z,100326.85
2024-05-09T17:31:07.577Z,100328.74
2024-05-09T17:33:45.151Z,100330.77
2024-05-09T17:36:22.566Z,100329.92
2024-05-09T17:38:59.812Z,100326.94
2024-05-09T17:41:37.251Z,100327.39
2024-05-09T17:44:15.383Z,100326.35
2024-05-09T17:46:53.131Z,100328.77
2024-05-09T17:49:30.460Z,100331.59
2024-05-09T17:52:08.484Z,100327.27
2024-05-09T17:54:45.815Z,100324.21
2024-05-09T17:57:23.262Z,100323.71
2024-05-09T18:00:00.511Z,100329.67
2024-05-09T18:02:37.896Z,100330.55
2024-05-09T18:05:15.340Z,100334.02
2024-05-09T18:07:52.736Z,100337.12
2024-05-09T18:10:35.986Z,100337.86
2024-05-09T18:13:16.376Z,100338.53
2024-05-09T18:15:53.644Z,100339.69
2024-05-09T18:18:31.402Z,100337.02
2024-05-09T18:21:08.913Z,100335.05
2024-05-09T18:23:46.461Z,100339.03
2024-05-09T18:26:24.135Z,100336.06
2024-05-09T18:29:01.845Z,100339.16
2024-05-09T18:31:39.143Z,100341.70
2024-05-09T18:34:17.400Z,100341.23
2024-05-09T18:36:54.931Z,100343.25
2024-05-09T18:39:33.048Z,100344.60
2024-05-09T18:42:11.140Z,100345.28
2024-05-09T18:44:48.343Z,100343.63
2024-05-09T18:47:26.832Z,100344.14
2024-05-09T18:50:09.185Z,100348.80
2024-05-09T18:52:51.933Z,100348.84
2024-05-09T18:55:30.129Z,100351.64
2024-05-09T18:58:07.989Z,100351.09
2024-05-09T19:00:48.479Z,100358.20
2024-05-09T19:03:28.841Z,100354.81
2024-05-09T19:06:08.101Z,100354.98
2024-05-09T19:08:45.701Z,100361.42
2024-05-09T19:11:24.667Z,100367.11
2024-05-09T19:14:04.466Z,100365.34
2024-05-09T19:16:45.524Z,100370.89
2024-05-09T19:19:22.864Z,100371.60
2024-05-09T19:22:02.772Z,100374.09
2024-05-09T19:24:41.051Z,100377.95
2024-05-09T19:27:18.714Z,100379.34
2024-05-09T19:29:58.031Z,100384.48
2024-05-09T19:32:39.598Z,100380.69
2024-05-09T19:35:18.024Z,100383.94
2024-05-09T19:37:56.505Z,100384.54
2024-05-09T19:40:38.422Z,100386.70
2024-05-09T19:43:17.242Z,100385.15
2024-05-09T19:45:55.676Z,100389.20
2024-05-09T19:48:34.604Z,100393.80
2024-05-09T19:51:12.416Z,100395.28
2024-05-09T19:53:48.403Z,100394.42
2024-05-09T19:56:27.091Z,100392.48
2024-05-09T19:59:05.486Z,100395.75
2024-05-09T20:01:45.229Z,100396.27
2024-05-09T20:04:23.565Z,100392.24
2024-05-09T20:07:04.574Z,100391.48
2024-05-09T20:09:41.941Z,100392.27
2024-05-09T20:12:19.387Z,100396.44
2024-05-09T20:14:56.588Z,100400.52
2024-05-09T20:17:34.957Z,100403.83
2024-05-09T20:20:24.562Z,100406.66
2024-05-09T20:23:12.471Z,100407.83
2024-05-09T20:25:52.294Z,100406.64
2024-05-09T20:28:29.725Z,100409.36
2024-05-09T20:31:08.819Z,100413.40
2024-05-09T20:33:46.999Z,100415.24
2024-05-09T20:36:25.441Z,100416.15
2024-05-09T20:39:02.614Z,100415.64
2024-05-09T20:41:43.120Z,100417.52
2024-05-09T20:44:22.338Z,100418.34
2024-05-09T20:46:59.643Z,100420.86
2024-05-09T20:49:37.838Z,100423.23
2024-05-09T20:52:15.184Z,100422.87
2024-05-09T20:54:52.498Z,100421.74
2024-05-09T20:57:29.861Z,100424.92
2024-05-09T21:00:14.839Z,100421.34
2024-05-09T21:02:55.685Z,100422.95
2024-05-09T21:05:33.239Z,100418.30
2024-05-09T21:08:11.734Z,100420.52
2024-05-09T21:10:49.081Z,100425.39
2024-05-09T21:13:26.417Z,100421.95
2024-05-09T21:16:03.765Z,100418.07
2024-05-09T21:18:41.111Z,100415.36
2024-05-09T21:21:18.490Z,100417.30
2024-05-09T21:23:55.677Z,100420.12
2024-05-09T21:26:33.474Z,100417.95
2024-05-09T21:29:11.821Z,100415.70
2024-05-09T21:31:49.199Z,100422.17
2024-05-09T21:34:26.609Z,100421.52
2024-05-09T21:37:03.983Z,100422.11
2024-05-09T21:39:41.318Z,100422.65
2024-05-09T21:42:18.509Z,100430.13
2024-05-09T21:44:55.753Z,100429.22
2024-05-09T21:47:33.222Z,100425.38
2024-05-09T21:50:22.064Z,100425.94
2024-05-09T21:53:00.737Z,100425.09
2024-05-09T21:55:37.888Z,100426.15
2024-05-09T21:58:16.091Z,100420.95
2024-05-09T22:00:53.505Z,100423.94
2024-05-09T22:03:30.919Z,100421.39
2024-05-09T22:06:08.466Z,100424.14
2024-05-09T22:08:45.794Z,100425.10
2024-05-09T22:11:23.112Z,100430.26
2024-05-09T22:14:00.414Z,100432.48
2024-05-09T22:16:42.325Z,100430.54
2024-05-09T22:19:19.869Z,100433.06
2024-05-09T22:21:57.698Z,100429.80
2024-05-09T22:24:35.670Z,100432.01
2024-05-09T22:27:13.276Z,100433.58
2024-05-09T22:29:50.591Z,100434.58
2024-05-09T22:32:27.888Z,100435.27
2024-05-09T22:35:07.806Z,100434.96
2024-05-09T22:37:45.107Z,100436.67
2024-05-09T22:40:32.136Z,100435.24
2024-05-09T22:43:16.130Z,100435.88
2024-05-09T22:45:54.334Z,100432.36
2024-05-09T22:48:32.365Z,100431.05
2024-05-09T22:51:10.112Z,100429.87
2024-05-09T22:53:47.282Z,100427.00
2024-05-09T22:56:31.725Z,100428.05
2024-05-09T22:59:09.868Z,100428.27
2024-05-09T23:01:47.271Z,100429.04
2024-05-09T23:04:24.567Z,100429.81
2024-05-09T23:07:01.747Z,100428.73
2024-05-09T23:09:38.877Z,100427.42
2024-05-09T23:12:17.676Z,100425.61
2024-05-09T23:14:52.030Z,100423.70
2024-05-09T23:17:29.191Z,100423.70
2024-05-09T23:20:08.887Z,100420.80
2024-05-09T23:22:48.744Z,100420.55
2024-05-09T23:25:25.835Z,100416.98
2024-05-09T23:28:03.551Z,100415.34
2024-05-09T23:30:41.841Z,100416.57
2024-05-09T23:33:16.934Z,100412.34
2024-05-09T23:35:54.831Z,100408.38
2024-05-09T23:38:31.843Z,100412.36
2024-05-09T23:41:09.201Z,100407.38
2024-05-09T23:43:46.525Z,100411.23
2024-05-09T23:46:23.811Z,100408.23
2024-05-09T23:49:01.283Z,100407.93
2024-05-09T23:51:38.764Z,100409.63
2024-05-09T23:54:17.565Z,100406.18
2024-05-09T23:56:51.929Z,100405.67
2024-05-09T23:59:29.073Z,100406.14
